createdAt,value
2022-10-01T00:02:25.491Z,91.48
2022-10-01T00:04:53.422Z,91.34
2022-10-01T00:07:21.368Z,91.52
2022-10-01T00:09:49.279Z,91.48
2022-10-01T00:12:17.204Z,91.53
2022-10-01T00:14:45.125Z,91.49
2022-10-01T00:17:13.005Z,91.35
2022-10-01T00:19:40.869Z,91.30
2022-10-01T00:22:08.774Z,91.44
2022-10-01T00:24:37.750Z,91.41
2022-10-01T00:27:05.669Z,91.33
2022-10-01T00:29:33.717Z,91.52
2022-10-01T00:32:02.147Z,91.41
2022-10-01T00:34:30.264Z,91.31
2022-10-01T00:36:58.181Z,91.30
2022-10-01T00:39:26.189Z,91.39
2022-10-01T00:41:54.699Z,91.39
2022-10-01T00:44:37.561Z,91.37
2022-10-01T00:47:21.476Z,91.25
2022-10-01T00:49:57.430Z,91.36
2022-10-01T00:52:32.396Z,91.43
2022-10-01T00:55:18.335Z,91.43
2022-10-01T00:57:46.980Z,91.44
2022-10-01T01:00:16.442Z,91.55
2022-10-01T01:02:44.508Z,91.54
2022-10-01T01:05:13.545Z,91.48
2022-10-01T01:07:49.718Z,91.49
2022-10-01T01:10:35.171Z,91.56
2022-10-01T01:13:11.755Z,91.56
2022-10-01T01:16:03.712Z,91.58
2022-10-01T01:18:42.968Z,91.62
2022-10-01T01:21:24.779Z,91.56
2022-10-01T01:24:32.735Z,91.35
2022-10-01T01:27:16.491Z,91.48
2022-10-01T01:30:08.458Z,91.46
2022-10-01T01:32:42.869Z,91.52
2022-10-01T01:35:13.840Z,91.53
2022-10-01T01:37:51.844Z,91.51
2022-10-01T01:40:21.876Z,91.56
2022-10-01T01:42:54.121Z,91.47
2022-10-01T01:45:28.761Z,91.63
2022-10-01T01:48:02.239Z,91.51
2022-10-01T01:50:39.156Z,91.48
2022-10-01T01:53:07.052Z,91.61
2022-10-01T01:55:36.895Z,91.60
2022-10-01T01:58:05.001Z,91.66
2022-10-01T02:00:32.957Z,91.43
2022-10-01T02:03:00.991Z,91.50
2022-10-01T02:05:45.604Z,91.52
2022-10-01T02:08:47.507Z,91.43
2022-10-01T02:11:24.992Z,91.47
2022-10-01T02:14:49.118Z,91.53
2022-10-01T02:17:36.515Z,91.66
2022-10-01T02:20:15.625Z,91.80
2022-10-01T02:23:15.532Z,91.80
2022-10-01T02:25:50.026Z,91.85
2022-10-01T02:28:23.579Z,91.88
2022-10-01T02:30:57.737Z,91.89
2022-10-01T02:33:36.651Z,91.89
2022-10-01T02:36:08.163Z,91.84
2022-10-01T02:38:40.972Z,91.81
2022-10-01T02:41:15.165Z,91.92
2022-10-01T02:44:03.164Z,91.92
2022-10-01T02:46:40.760Z,92.00
2022-10-01T02:49:09.888Z,91.99
2022-10-01T02:52:01.700Z,92.06
2022-10-01T02:54:39.875Z,91.98
2022-10-01T02:57:26.360Z,92.06
2022-10-01T03:00:01.352Z,91.98
2022-10-01T03:02:31.784Z,91.98
2022-10-01T03:05:00.948Z,92.08
2022-10-01T03:07:32.015Z,92.30
2022-10-01T03:10:00.058Z,92.14
2022-10-01T03:12:28.032Z,92.08
2022-10-01T03:14:56.053Z,92.18
2022-10-01T03:17:24.048Z,92.22
2022-10-01T03:19:51.941Z,92.10
2022-10-01T03:22:24.671Z,92.12
2022-10-01T03:24:53.552Z,92.24
2022-10-01T03:27:22.366Z,92.23
2022-10-01T03:29:50.791Z,92.30
2022-10-01T03:32:20.416Z,92.26
2022-10-01T03:34:48.615Z,92.24
2022-10-01T03:37:16.643Z,92.22
2022-10-01T03:39:44.920Z,92.26
2022-10-01T03:42:12.839Z,92.15
2022-10-01T03:44:41.473Z,92.14
2022-10-01T03:47:10.850Z,92.18
2022-10-01T03:49:38.718Z,92.15
2022-10-01T03:52:06.793Z,92.15
2022-10-01T03:54:34.793Z,92.13
2022-10-01T03:57:02.730Z,92.06
2022-10-01T03:59:30.582Z,92.14
2022-10-01T04:01:58.520Z,92.14
2022-10-01T04:04:28.913Z,92.12
2022-10-01T04:06:56.884Z,92.04
2022-10-01T04:09:24.828Z,92.06
2022-10-01T04:11:52.941Z,92.06
2022-10-01T04:14:21.062Z,92.02
2022-10-01T04:16:52.512Z,91.99
2022-10-01T04:19:20.679Z,92.01
2022-10-01T04:21:48.931Z,91.91
2022-10-01T04:24:16.962Z,92.03
2022-10-01T04:26:44.877Z,91.96
2022-10-01T04:29:12.887Z,91.85
2022-10-01T04:31:40.838Z,91.92
2022-10-01T04:34:08.841Z,91.86
2022-10-01T04:36:36.739Z,91.85
2022-10-01T04:39:05.452Z,91.89
2022-10-01T04:41:33.782Z,91.88
2022-10-01T04:44:02.106Z,91.89
2022-10-01T04:46:30.498Z,91.90
2022-10-01T04:48:58.739Z,91.87
2022-10-01T04:51:26.630Z,91.88
2022-10-01T04:53:55.628Z,91.92
2022-10-01T04:56:23.640Z,91.85
2022-10-01T04:58:51.817Z,91.90
2022-10-01T05:01:19.759Z,91.86
2022-10-01T05:03:47.780Z,91.84
2022-10-01T05:06:15.664Z,91.80
2022-10-01T05:08:43.519Z,91.97
2022-10-01T05:11:11.402Z,91.90
2022-10-01T05:13:39.308Z,91.93
2022-10-01T05:16:07.900Z,91.88
2022-10-01T05:18:36.123Z,91.65
2022-10-01T05:21:08.299Z,91.61
2022-10-01T05:23:36.203Z,91.70
2022-10-01T05:26:05.775Z,91.70
2022-10-01T05:28:35.785Z,91.64
2022-10-01T05:31:04.252Z,91.64
2022-10-01T05:33:34.126Z,91.72
2022-10-01T05:36:05.144Z,91.54
2022-10-01T05:38:37.422Z,91.35
2022-10-01T05:41:06.000Z,91.44
2022-10-01T05:43:34.215Z,91.58
2022-10-01T05:46:05.534Z,91.65
2022-10-01T05:48:36.915Z,91.73
2022-10-01T05:51:07.985Z,91.69
2022-10-01T05:53:37.820Z,91.64
2022-10-01T05:56:07.309Z,91.64
2022-10-01T05:58:35.517Z,91.83
2022-10-01T06:01:04.990Z,91.77
2022-10-01T06:03:33.200Z,91.82
2022-10-01T06:06:01.070Z,91.83
2022-10-01T06:08:28.983Z,91.93
2022-10-01T06:11:02.105Z,92.01
2022-10-01T06:13:30.744Z,92.05
2022-10-01T06:15:58.667Z,92.00
2022-10-01T06:18:27.440Z,92.01
2022-10-01T06:20:57.787Z,92.07
2022-10-01T06:23:25.825Z,92.06
2022-10-01T06:25:54.385Z,92.03
2022-10-01T06:28:22.398Z,92.03
2022-10-01T06:30:50.390Z,91.99
2022-10-01T06:33:19.043Z,92.00
2022-10-01T06:35:50.720Z,92.05
2022-10-01T06:38:22.094Z,92.09
2022-10-01T06:41:00.667Z,92.07
2022-10-01T06:43:31.447Z,91.99
2022-10-01T06:46:05.151Z,91.99
2022-10-01T06:48:36.068Z,92.09
2022-10-01T06:51:04.553Z,92.13
2022-10-01T06:53:32.703Z,92.08
2022-10-01T06:56:08.045Z,92.22
2022-10-01T06:58:37.465Z,92.21
2022-10-01T07:01:05.406Z,92.25
2022-10-01T07:03:33.443Z,92.15
2022-10-01T07:06:04.759Z,92.15
2022-10-01T07:08:33.469Z,92.02
2022-10-01T07:11:05.062Z,91.97
2022-10-01T07:13:33.106Z,91.98
2022-10-01T07:16:05.732Z,92.09
2022-10-01T07:18:33.800Z,92.04
2022-10-01T07:21:01.875Z,91.88
2022-10-01T07:23:29.747Z,91.80
2022-10-01T07:25:57.749Z,91.82
2022-10-01T07:28:26.308Z,91.80
2022-10-01T07:31:07.212Z,91.88
2022-10-01T07:33:35.168Z,91.84
2022-10-01T07:36:07.566Z,91.85
2022-10-01T07:38:35.649Z,91.82
2022-10-01T07:41:04.601Z,91.90
2022-10-01T07:43:34.694Z,91.82
2022-10-01T07:46:03.552Z,91.76
2022-10-01T07:48:31.739Z,91.80
2022-10-01T07:50:59.592Z,91.81
2022-10-01T07:53:28.247Z,91.92
2022-10-01T07:55:56.897Z,91.86
2022-10-01T07:58:24.876Z,91.86
2022-10-01T08:00:58.267Z,91.75
2022-10-01T08:03:27.083Z,91.77
2022-10-01T08:05:55.193Z,91.79
2022-10-01T08:08:23.216Z,91.65
2022-10-01T08:10:51.325Z,91.63
2022-10-01T08:13:20.432Z,91.58
2022-10-01T08:15:53.677Z,91.49
2022-10-01T08:18:23.591Z,91.40
2022-10-01T08:20:52.008Z,91.32
2022-10-01T08:23:19.936Z,91.26
2022-10-01T08:25:48.139Z,91.25
2022-10-01T08:28:16.514Z,91.21
2022-10-01T08:30:44.737Z,91.21
2022-10-01T08:33:14.617Z,91.18
2022-10-01T08:35:43.856Z,91.21
2022-10-01T08:38:13.201Z,90.92
2022-10-01T08:40:51.906Z,90.89
2022-10-01T08:43:31.270Z,90.82
2022-10-01T08:46:10.982Z,90.85
2022-10-01T08:48:56.915Z,90.74
2022-10-01T08:51:38.644Z,90.73
2022-10-01T08:54:39.815Z,90.58
2022-10-01T08:57:17.603Z,90.58
2022-10-01T08:59:52.209Z,90.54
2022-10-01T09:02:27.550Z,90.29
2022-10-01T09:05:21.040Z,90.15
2022-10-01T09:08:20.525Z,90.02
2022-10-01T09:11:04.401Z,89.61
2022-10-01T09:13:59.799Z,89.43
2022-10-01T09:17:06.407Z,88.86
2022-10-01T09:19:55.020Z,88.30
2022-10-01T09:22:47.935Z,88.34
2022-10-01T09:25:26.236Z,88.58
2022-10-01T09:28:28.820Z,88.37
2022-10-01T09:31:14.036Z,87.89
2022-10-01T09:34:02.162Z,87.48
2022-10-01T09:36:44.051Z,87.31
2022-10-01T09:39:27.161Z,87.10
2022-10-01T09:41:55.448Z,86.92
2022-10-01T09:44:31.003Z,85.97
2022-10-01T09:46:59.666Z,85.21
2022-10-01T09:49:35.133Z,85.49
2022-10-01T09:52:28.890Z,85.25
2022-10-01T09:55:12.249Z,85.46
2022-10-01T09:57:59.792Z,84.86
2022-10-01T10:00:28.675Z,84.75
2022-10-01T10:02:56.894Z,84.21
2022-10-01T10:05:29.011Z,83.95
2022-10-01T10:08:11.655Z,83.71
2022-10-01T10:10:51.024Z,83.19
2022-10-01T10:13:32.176Z,83.20
2022-10-01T10:16:10.642Z,82.72
2022-10-01T10:18:40.884Z,81.79
2022-10-01T10:21:18.137Z,80.41
2022-10-01T10:23:56.251Z,82.05
2022-10-01T10:26:34.556Z,82.02
2022-10-01T10:29:04.432Z,80.05
2022-10-01T10:31:44.980Z,80.13
2022-10-01T10:34:13.612Z,80.17
2022-10-01T10:36:43.772Z,80.24
2022-10-01T10:39:36.872Z,77.96
2022-10-01T10:42:06.953Z,79.36
2022-10-01T10:44:41.950Z,80.11
2022-10-01T10:47:17.242Z,79.74
2022-10-01T10:50:00.270Z,79.17
2022-10-01T10:52:36.469Z,78.44
2022-10-01T10:55:27.048Z,78.61
2022-10-01T10:57:57.753Z,78.10
2022-10-01T11:00:26.606Z,76.13
2022-10-01T11:03:05.206Z,75.44
2022-10-01T11:05:42.287Z,75.00
2022-10-01T11:08:21.261Z,75.69
2022-10-01T11:10:59.354Z,76.45
2022-10-01T11:13:51.470Z,76.57
2022-10-01T11:16:35.071Z,73.75
2022-10-01T11:19:30.887Z,74.54
2022-10-01T11:22:11.866Z,74.23
2022-10-01T11:24:47.054Z,73.27
2022-10-01T11:27:36.449Z,72.82
2022-10-01T11:30:16.806Z,73.55
2022-10-01T11:32:54.448Z,73.14
2022-10-01T11:35:52.263Z,73.09
2022-10-01T11:38:27.440Z,71.26
2022-10-01T11:41:11.908Z,70.83
2022-10-01T11:43:45.755Z,71.24
2022-10-01T11:46:40.488Z,69.85
2022-10-01T11:49:32.790Z,71.28
2022-10-01T11:52:23.721Z,70.99
2022-10-01T11:55:28.463Z,72.77
2022-10-01T11:58:28.980Z,71.72
2022-10-01T12:01:42.666Z,70.36
2022-10-01T12:04:22.540Z,70.87
2022-10-01T12:07:04.768Z,67.48
2022-10-01T12:09:58.661Z,68.73
2022-10-01T12:13:19.296Z,69.32
2022-10-01T12:16:08.591Z,68.37
2022-10-01T12:18:45.472Z,67.89
2022-10-01T12:21:30.307Z,67.96
2022-10-01T12:24:20.566Z,68.94
2022-10-01T12:27:02.556Z,69.35
2022-10-01T12:30:01.589Z,70.73
2022-10-01T12:33:17.447Z,69.55
2022-10-01T12:36:10.107Z,69.81
2022-10-01T12:38:47.262Z,68.66
2022-10-01T12:42:13.333Z,68.97
2022-10-01T12:45:21.641Z,69.39
2022-10-01T12:48:27.948Z,68.28
2022-10-01T12:52:03.050Z,66.04
2022-10-01T12:55:11.605Z,66.56
2022-10-01T12:58:00.848Z,66.52
2022-10-01T13:00:41.082Z,66.20
2022-10-01T13:03:44.483Z,65.74
2022-10-01T13:06:42.806Z,67.12
2022-10-01T13:09:34.232Z,66.45
2022-10-01T13:12:52.047Z,66.76
2022-10-01T13:15:32.805Z,65.84
2022-10-01T13:18:06.343Z,65.47
2022-10-01T13:20:46.273Z,65.50
2022-10-01T13:23:31.474Z,65.22
2022-10-01T13:26:25.659Z,65.34
2022-10-01T13:29:27.488Z,64.94
2022-10-01T13:32:00.685Z,66.03
2022-10-01T13:34:45.309Z,65.25
2022-10-01T13:37:29.677Z,64.97
2022-10-01T13:39:59.891Z,63.49
2022-10-01T13:42:47.232Z,64.74
2022-10-01T13:45:30.908Z,64.13
2022-10-01T13:48:11.841Z,64.67
2022-10-01T13:50:53.984Z,64.20
2022-10-01T13:53:25.811Z,64.23
2022-10-01T13:55:54.907Z,62.90
2022-10-01T13:58:45.499Z,63.81
2022-10-01T14:01:19.953Z,63.10
2022-10-01T14:04:24.506Z,63.64
2022-10-01T14:07:11.640Z,63.86
2022-10-01T14:09:51.988Z,63.24
2022-10-01T14:12:52.125Z,63.62
2022-10-01T14:16:00.130Z,63.73
2022-10-01T14:18:39.320Z,63.33
2022-10-01T14:21:22.975Z,63.48
2022-10-01T14:24:13.241Z,63.58
2022-10-01T14:26:56.480Z,64.52
2022-10-01T14:30:01.507Z,64.20
2022-10-01T14:32:39.921Z,62.19
2022-10-01T14:35:33.291Z,62.49
2022-10-01T14:38:10.891Z,61.10
2022-10-01T14:40:46.849Z,60.33
2022-10-01T14:43:29.189Z,61.31
2022-10-01T14:46:02.812Z,61.40
2022-10-01T14:48:38.005Z,61.29
2022-10-01T14:51:22.207Z,62.33
2022-10-01T14:53:52.430Z,63.30
2022-10-01T14:56:22.995Z,63.58
2022-10-01T14:59:05.694Z,63.88
2022-10-01T15:01:33.555Z,63.72
2022-10-01T15:04:01.993Z,63.81
2022-10-01T15:06:32.563Z,63.96
2022-10-01T15:09:15.510Z,64.01
2022-10-01T15:11:46.758Z,64.32
2022-10-01T15:14:19.340Z,64.06
2022-10-01T15:16:48.548Z,63.87
2022-10-01T15:19:23.070Z,63.65
2022-10-01T15:21:57.806Z,63.22
2022-10-01T15:25:00.955Z,62.92
2022-10-01T15:27:29.117Z,62.05
2022-10-01T15:30:01.357Z,62.49
2022-10-01T15:32:29.633Z,62.00
2022-10-01T15:35:01.758Z,62.39
2022-10-01T15:37:37.958Z,62.41
2022-10-01T15:40:20.949Z,63.24
2022-10-01T15:43:27.644Z,63.30
2022-10-01T15:46:04.668Z,63.06
2022-10-01T15:48:33.917Z,63.54
2022-10-01T15:51:20.207Z,63.24
2022-10-01T15:53:48.776Z,62.97
2022-10-01T15:56:24.061Z,63.22
2022-10-01T15:59:02.993Z,62.84
2022-10-01T16:01:40.301Z,63.13
2022-10-01T16:04:12.151Z,63.71
2022-10-01T16:06:44.979Z,63.19
2022-10-01T16:09:23.758Z,62.79
2022-10-01T16:11:59.721Z,63.28
2022-10-01T16:14:40.987Z,62.76
2022-10-01T16:17:27.186Z,62.83
2022-10-01T16:20:16.462Z,63.35
2022-10-01T16:22:44.385Z,63.86
2022-10-01T16:25:19.753Z,63.09
2022-10-01T16:27:50.740Z,62.92
2022-10-01T16:30:28.398Z,62.99
2022-10-01T16:32:59.906Z,63.53
2022-10-01T16:35:33.144Z,63.53
2022-10-01T16:38:01.433Z,64.38
2022-10-01T16:40:39.210Z,64.92
2022-10-01T16:43:08.848Z,65.41
2022-10-01T16:45:39.166Z,65.90
2022-10-01T16:48:19.761Z,65.74
2022-10-01T16:50:48.423Z,66.05
2022-10-01T16:53:18.675Z,66.18
2022-10-01T16:55:47.424Z,66.41
2022-10-01T16:58:15.887Z,66.38
2022-10-01T17:00:44.136Z,66.29
2022-10-01T17:03:18.792Z,66.40
2022-10-01T17:05:47.291Z,66.69
2022-10-01T17:08:15.854Z,67.20
2022-10-01T17:10:48.137Z,67.04
2022-10-01T17:13:16.311Z,67.14
2022-10-01T17:15:44.482Z,67.47
2022-10-01T17:18:13.882Z,67.59
2022-10-01T17:20:42.095Z,67.78
2022-10-01T17:23:12.510Z,67.59
2022-10-01T17:25:42.107Z,67.43
2022-10-01T17:28:17.704Z,67.84
2022-10-01T17:30:48.844Z,68.25
2022-10-01T17:33:19.457Z,68.43
2022-10-01T17:35:52.194Z,68.66
2022-10-01T17:38:21.113Z,68.92
2022-10-01T17:40:54.211Z,69.26
2022-10-01T17:43:24.645Z,69.36
2022-10-01T17:45:58.551Z,69.52
2022-10-01T17:48:28.536Z,69.76
2022-10-01T17:51:06.518Z,69.84
2022-10-01T17:53:42.094Z,69.83
2022-10-01T17:56:19.203Z,69.95
2022-10-01T17:58:47.248Z,70.23
2022-10-01T18:01:20.442Z,70.37
2022-10-01T18:03:54.175Z,70.57
2022-10-01T18:06:24.704Z,70.54
2022-10-01T18:08:56.342Z,70.77
2022-10-01T18:11:28.411Z,71.17
2022-10-01T18:13:56.768Z,70.97
2022-10-01T18:16:25.963Z,71.21
2022-10-01T18:21:51.146Z,71.06
2022-10-01T18:24:19.494Z,71.08
2022-10-01T18:26:47.470Z,71.03
2022-10-01T18:29:23.967Z,71.01
2022-10-01T18:32:05.213Z,71.21
2022-10-01T18:34:45.786Z,71.16
2022-10-01T18:37:28.889Z,71.27
2022-10-01T18:40:27.329Z,71.32
2022-10-01T18:43:08.539Z,71.20
2022-10-01T18:45:57.662Z,71.27
2022-10-01T18:48:58.618Z,71.30
2022-10-01T18:52:04.329Z,71.20
2022-10-01T18:54:56.346Z,71.38
2022-10-01T18:58:05.718Z,71.64
2022-10-01T19:01:05.111Z,71.82
2022-10-01T19:04:29.099Z,72.12
2022-10-01T19:07:03.534Z,72.34
2022-10-01T19:10:00.472Z,72.60
2022-10-01T19:13:00.580Z,72.83
2022-10-01T19:15:39.934Z,73.03
2022-10-01T19:18:29.405Z,73.27
2022-10-01T19:21:39.643Z,73.40
2022-10-01T19:24:45.644Z,73.76
2022-10-01T19:27:49.943Z,73.86
2022-10-01T19:30:20.048Z,74.05
2022-10-01T19:32:57.567Z,74.13
2022-10-01T19:35:46.624Z,74.19
2022-10-01T19:38:35.278Z,74.38
2022-10-01T19:41:16.286Z,74.60
2022-10-01T19:44:02.671Z,74.94
2022-10-01T19:46:43.282Z,74.88
2022-10-01T19:49:33.975Z,75.03
2022-10-01T19:52:16.771Z,75.22
2022-10-01T19:54:54.539Z,75.21
2022-10-01T19:57:26.609Z,75.41
2022-10-01T19:59:58.574Z,75.53
2022-10-01T20:02:36.497Z,75.56
2022-10-01T20:05:07.948Z,75.89
2022-10-01T20:08:00.353Z,76.03
2022-10-01T20:11:03.268Z,76.19
2022-10-01T20:13:41.686Z,76.17
2022-10-01T20:16:28.318Z,76.42
2022-10-01T20:19:14.332Z,76.52
2022-10-01T20:21:58.636Z,76.82
2022-10-01T20:24:39.302Z,76.97
2022-10-01T20:27:55.543Z,76.84
2022-10-01T20:30:24.098Z,76.95
2022-10-01T20:33:20.130Z,77.00
2022-10-01T20:36:06.617Z,77.04
2022-10-01T20:38:55.175Z,77.15
2022-10-01T20:41:30.197Z,77.21
2022-10-01T20:44:05.957Z,77.24
2022-10-01T20:46:48.302Z,77.60
2022-10-01T20:49:40.172Z,77.54
2022-10-01T20:52:51.069Z,77.76
2022-10-01T20:55:29.348Z,77.93
2022-10-01T20:58:06.584Z,78.03
2022-10-01T21:00:39.096Z,78.18
2022-10-01T21:03:19.640Z,78.20
2022-10-01T21:05:58.341Z,78.34
2022-10-01T21:08:48.882Z,78.43
2022-10-01T21:11:37.036Z,78.54
2022-10-01T21:14:34.487Z,78.48
2022-10-01T21:17:23.376Z,78.73
2022-10-01T21:20:47.700Z,78.82
2022-10-01T21:24:01.146Z,78.97
2022-10-01T21:26:48.043Z,79.11
2022-10-01T21:29:50.221Z,79.18
2022-10-01T21:32:58.902Z,79.41
2022-10-01T21:35:56.504Z,79.34
2022-10-01T21:38:42.925Z,79.42
2022-10-01T21:42:11.904Z,79.39
2022-10-01T21:45:44.684Z,79.36
2022-10-01T21:48:27.620Z,79.49
2022-10-01T21:51:34.805Z,79.47
2022-10-01T21:54:49.270Z,79.49
2022-10-01T21:57:37.026Z,79.72
2022-10-01T22:00:21.486Z,79.80
2022-10-01T22:03:22.310Z,79.57
2022-10-01T22:05:56.176Z,79.61
2022-10-01T22:08:43.988Z,79.88
2022-10-01T22:11:21.057Z,80.11
2022-10-01T22:14:20.666Z,80.19
2022-10-01T22:17:04.831Z,80.12
2022-10-01T22:19:39.209Z,80.10
2022-10-01T22:22:34.014Z,80.16
2022-10-01T22:25:03.764Z,80.00
2022-10-01T22:27:46.300Z,80.04
2022-10-01T22:30:16.630Z,80.16
2022-10-01T22:33:08.120Z,80.17
2022-10-01T22:35:48.958Z,80.22
2022-10-01T22:38:46.288Z,80.20
2022-10-01T22:41:20.187Z,80.37
2022-10-01T22:43:48.130Z,80.34
2022-10-01T22:46:31.298Z,80.46
2022-10-01T22:49:32.720Z,80.48
2022-10-01T22:52:49.814Z,80.61
2022-10-01T22:55:29.781Z,80.61
2022-10-01T22:58:44.513Z,80.69
2022-10-01T23:01:40.482Z,80.80
2022-10-01T23:04:32.678Z,80.77
2022-10-01T23:07:45.426Z,80.84
2022-10-01T23:10:43.555Z,80.82
2022-10-01T23:13:26.664Z,80.73
2022-10-01T23:16:15.666Z,80.84
2022-10-01T23:19:09.756Z,80.80
2022-10-01T23:22:06.782Z,80.90
2022-10-01T23:24:49.792Z,81.16
2022-10-01T23:27:50.763Z,81.05
2022-10-01T23:30:20.597Z,81.04
2022-10-01T23:33:06.726Z,81.04
2022-10-01T23:35:56.549Z,81.02
2022-10-01T23:39:06.640Z,81.15
2022-10-01T23:41:43.700Z,81.06
2022-10-01T23:44:33.301Z,80.96
2022-10-01T23:47:10.264Z,80.93
2022-10-01T23:49:44.525Z,80.87
2022-10-01T23:52:29.588Z,80.87
2022-10-01T23:55:23.899Z,80.78
2022-10-01T23:58:02.293Z,80.87
